Agios Georgios I — SX9857 — position and weather

sailwx.info

Track history (hours):
 
Tides and Currents Weather Stations Pressure Air Temp Water Temp Dewpoint Dewpoint Depression Visibility Wind Speed Wind Dir Waves Ship Positions

Agios Georgios I

Last reported at 2016-Dec-07 23:27 UTC. Time now 2016-Dec-11 08:05 UTC.
Position N 39°23' E 024°14'.

Length 59 m; draft 5 m.

Type: Ship (hazmat cat B). MMSI: 239912000.

Date/timePositionNaut miles runAvg speedWind from/ knotsBaromVisibWave heightAir tempDewpointWater temp
2016-Dec-07 23:27N 39°23' E 024°14'106 2.5
2016-Dec-06 05:33N 37°37' E 024°04'9 8.7
2016-Dec-06 04:33N 37°37' E 023°53'9 8.6
2016-Dec-06 03:33N 37°40' E 023°43'9 9.3
2016-Dec-06 02:33N 37°48' E 023°37'9 9.0
2016-Dec-06 01:33N 37°50' E 023°26'9 9.1
2016-Dec-06 00:33N 37°53' E 023°15'8 7.9
2016-Dec-05 23:33N 37°55' E 023°05'0 0.0
2016-Dec-05 22:26N 37°55' E 023°05'0 0.0
2016-Dec-05 21:33N 37°55' E 023°05'0 0.0
2016-Dec-05 20:29N 37°55' E 023°05'0 0.0
2016-Dec-05 19:30N 37°55' E 023°05'0 0.0
2016-Dec-05 18:33N 37°55' E 023°05'0 0.0
2016-Dec-05 17:29N 37°55' E 023°05'0 0.0
2016-Dec-05 16:33N 37°55' E 023°05'0 0.0
2016-Dec-05 15:32N 37°55' E 023°05'0 0.0
2016-Dec-05 14:28N 37°55' E 023°05'0 0.0
2016-Dec-05 13:31N 37°55' E 023°05'0 0.0
2016-Dec-05 12:34N 37°55' E 023°05'0 0.0
2016-Dec-05 11:32N 37°55' E 023°05'1 0.5
2016-Dec-05 10:33N 37°55' E 023°06'0 0.1
2016-Dec-05 09:33N 37°55' E 023°06'0 0.0
2016-Dec-05 08:33N 37°55' E 023°06'0 0.0
2016-Dec-05 07:33N 37°55' E 023°06'0 0.0
2016-Dec-05 06:33N 37°55' E 023°06'0 0.0
2016-Dec-05 05:33N 37°55' E 023°06'0 0.0
2016-Dec-05 04:33N 37°55' E 023°06'0 0.0
2016-Dec-05 03:34N 37°55' E 023°06'0 0.0
2016-Dec-05 02:32N 37°55' E 023°06'0 0.0
2016-Dec-05 01:33N 37°55' E 023°06'0 0.0
2016-Dec-05 00:33N 37°55' E 023°06'0 0.0
2016-Dec-04 23:33N 37°55' E 023°06'0 0.0
2016-Dec-04 22:33N 37°55' E 023°06'0 0.0
2016-Dec-04 21:33N 37°55' E 023°06'0 0.0
2016-Dec-04 20:33N 37°55' E 023°06'0 0.0
2016-Dec-04 19:33N 37°55' E 023°06'0 0.0
2016-Dec-04 18:33N 37°55' E 023°06'0 0.0
2016-Dec-04 17:32N 37°55' E 023°06'0 0.0
2016-Dec-04 16:33N 37°55' E 023°06'0 0.0
2016-Dec-04 15:33N 37°55' E 023°06'0 0.0
2016-Dec-04 14:33N 37°55' E 023°06'0 0.0
2016-Dec-04 13:33N 37°55' E 023°06'0 0.0
2016-Dec-04 12:32N 37°55' E 023°06'0 0.0
2016-Dec-04 11:33N 37°55' E 023°06'0 0.0
2016-Dec-04 10:33N 37°55' E 023°06'0 0.0
2016-Dec-04 09:33N 37°55' E 023°06'0 0.0
2016-Dec-04 08:33N 37°55' E 023°06'0 0.0
2016-Dec-04 07:33N 37°55' E 023°06'0 0.0
2016-Dec-04 06:33N 37°55' E 023°06'0 0.0
2016-Dec-04 05:34N 37°55' E 023°06'3 3.3
2016-Dec-04 04:33N 37°53' E 023°10'9 9.1
2016-Dec-04 03:33N 37°51' E 023°21'9 8.8
2016-Dec-04 02:33N 37°49' E 023°32'7 7.4
2016-Dec-04 01:33N 37°48' E 023°41'9 8.5
2016-Dec-04 00:33N 37°40' E 023°46'9 8.8
2016-Dec-03 23:33N 37°38' E 023°56'11 8.7
2016-Dec-03 22:19N 37°40' E 024°10'7 9.4
2016-Dec-03 21:33N 37°44' E 024°17'9 8.9
2016-Dec-03 20:33N 37°46' E 024°28'9 9.0
2016-Dec-03 19:33N 37°50' E 024°38'23 1.5
2016-Dec-03 04:29N 37°32' E 024°56'6 0.3
2016-Dec-02 10:04N 37°29' E 025°02'5 9.2
2016-Dec-02 09:33N 37°31' E 025°07'2 2.2
2016-Dec-02 08:33N 37°32' E 025°09'0 0.1
2016-Dec-02 07:29N 37°32' E 025°09'0 0.0
2016-Dec-02 06:33N 37°32' E 025°09'0 0.0
2016-Dec-02 05:29N 37°32' E 025°09'0 0.3
2016-Dec-02 04:33N 37°32' E 025°09'7 7.0
2016-Dec-02 03:33N 37°27' E 025°15'7 6.7
2016-Dec-02 02:33N 37°23' E 025°22'6 6.4
2016-Dec-02 01:33N 37°26' E 025°30'  
2016-Nov-29 00:16N 37°29' E 025°56'22 8.0
2016-Nov-28 21:29N 37°18' E 025°31'8 8.4
2016-Nov-28 20:33N 37°15' E 025°22'9 8.6
2016-Nov-28 19:33N 37°11' E 025°13'6 1.0
2016-Nov-28 13:32N 37°09' E 025°06'9 8.0
2016-Nov-28 12:29N 37°17' E 025°02'8 8.7
2016-Nov-28 11:33N 37°24' E 024°59'  
Track history (hours):
 
Tides and Currents Weather Stations Pressure Air Temp Water Temp Dewpoint Dewpoint Depression Visibility Wind Speed Wind Dir Waves Ship Positions

Agios Georgios I

Last reported at 2016-Dec-07 23:27 UTC. Time now 2016-Dec-11 08:05 UTC.
Position N 39°23' E 024°14'.

Length 59 m; draft 5 m.

Type: Ship (hazmat cat B). MMSI: 239912000.

Date/timePositionNaut miles runAvg speedWind from/ knotsBaromVisibWave heightAir tempDewpointWater temp
2016-Dec-07 23:27N 39°23' E 024°14'106 2.5
2016-Dec-06 05:33N 37°37' E 024°04'9 8.7
2016-Dec-06 04:33N 37°37' E 023°53'9 8.6
2016-Dec-06 03:33N 37°40' E 023°43'9 9.3
2016-Dec-06 02:33N 37°48' E 023°37'9 9.0
2016-Dec-06 01:33N 37°50' E 023°26'9 9.1
2016-Dec-06 00:33N 37°53' E 023°15'8 7.9
2016-Dec-05 23:33N 37°55' E 023°05'0 0.0
2016-Dec-05 22:26N 37°55' E 023°05'0 0.0
2016-Dec-05 21:33N 37°55' E 023°05'0 0.0
2016-Dec-05 20:29N 37°55' E 023°05'0 0.0
2016-Dec-05 19:30N 37°55' E 023°05'0 0.0
2016-Dec-05 18:33N 37°55' E 023°05'0 0.0
2016-Dec-05 17:29N 37°55' E 023°05'0 0.0
2016-Dec-05 16:33N 37°55' E 023°05'0 0.0
2016-Dec-05 15:32N 37°55' E 023°05'0 0.0
2016-Dec-05 14:28N 37°55' E 023°05'0 0.0
2016-Dec-05 13:31N 37°55' E 023°05'0 0.0
2016-Dec-05 12:34N 37°55' E 023°05'0 0.0
2016-Dec-05 11:32N 37°55' E 023°05'1 0.5
2016-Dec-05 10:33N 37°55' E 023°06'0 0.1
2016-Dec-05 09:33N 37°55' E 023°06'0 0.0
2016-Dec-05 08:33N 37°55' E 023°06'0 0.0
2016-Dec-05 07:33N 37°55' E 023°06'0 0.0
2016-Dec-05 06:33N 37°55' E 023°06'0 0.0
2016-Dec-05 05:33N 37°55' E 023°06'0 0.0
2016-Dec-05 04:33N 37°55' E 023°06'0 0.0
2016-Dec-05 03:34N 37°55' E 023°06'0 0.0
2016-Dec-05 02:32N 37°55' E 023°06'0 0.0
2016-Dec-05 01:33N 37°55' E 023°06'0 0.0
2016-Dec-05 00:33N 37°55' E 023°06'0 0.0
2016-Dec-04 23:33N 37°55' E 023°06'0 0.0
2016-Dec-04 22:33N 37°55' E 023°06'0 0.0
2016-Dec-04 21:33N 37°55' E 023°06'0 0.0
2016-Dec-04 20:33N 37°55' E 023°06'0 0.0
2016-Dec-04 19:33N 37°55' E 023°06'0 0.0
2016-Dec-04 18:33N 37°55' E 023°06'0 0.0
2016-Dec-04 17:32N 37°55' E 023°06'0 0.0
2016-Dec-04 16:33N 37°55' E 023°06'0 0.0
2016-Dec-04 15:33N 37°55' E 023°06'0 0.0
2016-Dec-04 14:33N 37°55' E 023°06'0 0.0
2016-Dec-04 13:33N 37°55' E 023°06'0 0.0
2016-Dec-04 12:32N 37°55' E 023°06'0 0.0
2016-Dec-04 11:33N 37°55' E 023°06'0 0.0
2016-Dec-04 10:33N 37°55' E 023°06'0 0.0
2016-Dec-04 09:33N 37°55' E 023°06'0 0.0
2016-Dec-04 08:33N 37°55' E 023°06'0 0.0
2016-Dec-04 07:33N 37°55' E 023°06'0 0.0
2016-Dec-04 06:33N 37°55' E 023°06'0 0.0
2016-Dec-04 05:34N 37°55' E 023°06'3 3.3
2016-Dec-04 04:33N 37°53' E 023°10'9 9.1
2016-Dec-04 03:33N 37°51' E 023°21'9 8.8
2016-Dec-04 02:33N 37°49' E 023°32'7 7.4
2016-Dec-04 01:33N 37°48' E 023°41'9 8.5
2016-Dec-04 00:33N 37°40' E 023°46'9 8.8
2016-Dec-03 23:33N 37°38' E 023°56'11 8.7
2016-Dec-03 22:19N 37°40' E 024°10'7 9.4
2016-Dec-03 21:33N 37°44' E 024°17'9 8.9
2016-Dec-03 20:33N 37°46' E 024°28'9 9.0
2016-Dec-03 19:33N 37°50' E 024°38'23 1.5
2016-Dec-03 04:29N 37°32' E 024°56'6 0.3
2016-Dec-02 10:04N 37°29' E 025°02'5 9.2
2016-Dec-02 09:33N 37°31' E 025°07'2 2.2
2016-Dec-02 08:33N 37°32' E 025°09'0 0.1
2016-Dec-02 07:29N 37°32' E 025°09'0 0.0
2016-Dec-02 06:33N 37°32' E 025°09'0 0.0
2016-Dec-02 05:29N 37°32' E 025°09'0 0.3
2016-Dec-02 04:33N 37°32' E 025°09'7 7.0
2016-Dec-02 03:33N 37°27' E 025°15'7 6.7
2016-Dec-02 02:33N 37°23' E 025°22'6 6.4
2016-Dec-02 01:33N 37°26' E 025°30'  
2016-Nov-29 00:16N 37°29' E 025°56'22 8.0
2016-Nov-28 21:29N 37°18' E 025°31'8 8.4
2016-Nov-28 20:33N 37°15' E 025°22'9 8.6
2016-Nov-28 19:33N 37°11' E 025°13'6 1.0
2016-Nov-28 13:32N 37°09' E 025°06'9 8.0
2016-Nov-28 12:29N 37°17' E 025°02'8 8.7
2016-Nov-28 11:33N 37°24' E 024°59'  

Dump ship's entire track history